sensor_id;sensor_type;location;lat;lon;timestamp;pressure;altitude;pressure_sealevel;temperature;humidity
76404;BME280;65232;48.358;2.122;2022-11-15T00:00:03;100457.19;;;17.88;68.83
76404;BME280;65232;48.358;2.122;2022-11-15T00:00:13;100457.94;;;17.88;68.74
76404;BME280;65232;48.358;2.122;2022-11-15T00:00:24;100456.41;;;17.87;68.74
76404;BME280;65232;48.358;2.122;2022-11-15T00:00:34;100458.38;;;17.87;68.72
76404;BME280;65232;48.358;2.122;2022-11-15T00:00:44;100457.63;;;17.86;68.61
76404;BME280;65232;48.358;2.122;2022-11-15T00:00:55;100450.56;;;17.89;68.64
76404;BME280;65232;48.358;2.122;2022-11-15T00:01:10;100454.78;;;17.90;68.50
76404;BME280;65232;48.358;2.122;2022-11-15T00:01:24;100451.31;;;17.89;68.61
76404;BME280;65232;48.358;2.122;2022-11-15T00:01:34;100458.28;;;17.90;68.52
76404;BME280;65232;48.358;2.122;2022-11-15T00:01:44;100449.34;;;17.90;68.72
76404;BME280;65232;48.358;2.122;2022-11-15T00:01:55;100462.97;;;17.90;68.70
76404;BME280;65232;48.358;2.122;2022-11-15T00:02:05;100455.22;;;17.88;68.64
76404;BME280;65232;48.358;2.122;2022-11-15T00:02:15;100450.56;;;17.89;68.54
76404;BME280;65232;48.358;2.122;2022-11-15T00:02:26;100454.69;;;17.93;68.44
76404;BME280;65232;48.358;2.122;2022-11-15T00:02:36;100454.38;;;17.91;68.67
76404;BME280;65232;48.358;2.122;2022-11-15T00:02:46;100450.88;;;17.91;68.40
76404;BME280;65232;48.358;2.122;2022-11-15T00:02:57;100447.41;;;17.90;69.03
76404;BME280;65232;48.358;2.122;2022-11-15T00:03:07;100450.13;;;17.90;68.55
76404;BME280;65232;48.358;2.122;2022-11-15T00:03:20;100451.75;;;17.88;67.56
76404;BME280;65232;48.358;2.122;2022-11-15T00:03:31;100457.94;;;17.88;68.62
76404;BME280;65232;48.358;2.122;2022-11-15T00:03:41;100459.91;;;17.88;68.63
76404;BME280;65232;48.358;2.122;2022-11-15T00:03:51;100459.13;;;17.87;68.64
76404;BME280;65232;48.358;2.122;2022-11-15T00:04:03;100455.22;;;17.88;68.67
76404;BME280;65232;48.358;2.122;2022-11-15T00:04:13;100451.75;;;17.88;68.61
76404;BME280;65232;48.358;2.122;2022-11-15T00:04:24;100459.91;;;17.88;68.55
76404;BME280;65232;48.358;2.122;2022-11-15T00:04:34;100460.66;;;17.88;68.61
76404;BME280;65232;48.358;2.122;2022-11-15T00:04:44;100452.50;;;17.88;68.67
76404;BME280;65232;48.358;2.122;2022-11-15T00:04:55;100457.19;;;17.88;68.57
76404;BME280;65232;48.358;2.122;2022-11-15T00:05:05;100457.19;;;17.88;68.54
76404;BME280;65232;48.358;2.122;2022-11-15T00:05:15;100458.38;;;17.87;68.65
76404;BME280;65232;48.358;2.122;2022-11-15T00:05:26;100445.53;;;17.87;68.85
76404;BME280;65232;48.358;2.122;2022-11-15T00:05:36;100446.31;;;17.88;68.54
76404;BME280;65232;48.358;2.122;2022-11-15T00:05:47;100447.81;;;17.89;68.66
76404;BME280;65232;48.358;2.122;2022-11-15T00:06:01;100452.50;;;17.88;68.78
76404;BME280;65232;48.358;2.122;2022-11-15T00:06:12;100449.78;;;17.88;68.55
76404;BME280;65232;48.358;2.122;2022-11-15T00:06:22;100452.50;;;17.88;68.68
76404;BME280;65232;48.358;2.122;2022-11-15T00:06:32;100452.06;;;17.90;68.76
76404;BME280;65232;48.358;2.122;2022-11-15T00:06:43;100450.13;;;17.90;68.54
76404;BME280;65232;48.358;2.122;2022-11-15T00:06:53;100456.31;;;17.91;68.47
76404;BME280;65232;48.358;2.122;2022-11-15T00:07:03;100456.31;;;17.91;68.44
76404;BME280;65232;48.358;2.122;2022-11-15T00:07:14;100448.94;;;17.91;68.35
76404;BME280;65232;48.358;2.122;2022-11-15T00:07:24;100457.84;;;17.92;68.64
76404;BME280;65232;48.358;2.122;2022-11-15T00:07:34;100455.56;;;17.90;68.45
76404;BME280;65232;48.358;2.122;2022-11-15T00:07:45;100450.13;;;17.90;68.40
76404;BME280;65232;48.358;2.122;2022-11-15T00:07:56;100459.47;;;17.89;68.64
76404;BME280;65232;48.358;2.122;2022-11-15T00:08:07;100450.88;;;17.91;68.47
76404;BME280;65232;48.358;2.122;2022-11-15T00:08:17;100452.41;;;17.92;68.75
76404;BME280;65232;48.358;2.122;2022-11-15T00:08:32;100450.13;;;17.90;68.39
76404;BME280;65232;48.358;2.122;2022-11-15T00:08:42;100449.34;;;17.90;68.74
76404;BME280;65232;48.358;2.122;2022-11-15T00:08:53;100454.03;;;17.89;68.75
76404;BME280;65232;48.358;2.122;2022-11-15T00:09:03;100450.56;;;17.89;68.71
76404;BME280;65232;48.358;2.122;2022-11-15T00:09:13;100449.78;;;17.88;68.74
76404;BME280;65232;48.358;2.122;2022-11-15T00:09:24;100449.78;;;17.88;68.57
76404;BME280;65232;48.358;2.122;2022-11-15T00:09:34;100455.22;;;17.88;68.69
76404;BME280;65232;48.358;2.122;2022-11-15T00:09:44;100454.03;;;17.89;68.62
76404;BME280;65232;48.358;2.122;2022-11-15T00:09:55;100445.88;;;17.89;68.60
76404;BME280;65232;48.358;2.122;2022-11-15T00:10:05;100458.72;;;17.89;68.61
76404;BME280;65232;48.358;2.122;2022-11-15T00:10:16;100451.31;;;17.89;68.62
76404;BME280;65232;48.358;2.122;2022-11-15T00:10:26;100449.34;;;17.90;68.66
76404;BME280;65232;48.358;2.122;2022-11-15T00:10:37;100447.81;;;17.89;68.57
76404;BME280;65232;48.358;2.122;2022-11-15T00:10:58;100450.13;;;17.90;68.43
76404;BME280;65232;48.358;2.122;2022-11-15T00:11:10;100449.34;;;17.90;68.63
76404;BME280;65232;48.358;2.122;2022-11-15T00:11:21;100453.28;;;17.89;68.42
76404;BME280;65232;48.358;2.122;2022-11-15T00:11:31;100448.59;;;17.89;68.61
76404;BME280;65232;48.358;2.122;2022-11-15T00:11:42;100454.03;;;17.89;68.43
76404;BME280;65232;48.358;2.122;2022-11-15T00:11:52;100450.56;;;17.89;68.71
76404;BME280;65232;48.358;2.122;2022-11-15T00:12:02;100456.75;;;17.89;68.69
76404;BME280;65232;48.358;2.122;2022-11-15T00:12:13;100446.31;;;17.88;68.71
76404;BME280;65232;48.358;2.122;2022-11-15T00:12:23;100446.31;;;17.88;68.75
76404;BME280;65232;48.358;2.122;2022-11-15T00:12:33;100448.25;;;17.87;68.49
76404;BME280;65232;48.358;2.122;2022-11-15T00:12:44;100450.97;;;17.87;68.69
76404;BME280;65232;48.358;2.122;2022-11-15T00:12:54;100449.03;;;17.88;68.77
76404;BME280;65232;48.358;2.122;2022-11-15T00:13:14;100460.66;;;17.88;68.68
76404;BME280;65232;48.358;2.122;2022-11-15T00:13:25;100445.53;;;17.87;68.61
76404;BME280;65232;48.358;2.122;2022-11-15T00:13:35;100450.22;;;17.87;68.78
76404;BME280;65232;48.358;2.122;2022-11-15T00:13:45;100451.75;;;17.88;68.75
76404;BME280;65232;48.358;2.122;2022-11-15T00:13:57;100446.31;;;17.88;68.84
76404;BME280;65232;48.358;2.122;2022-11-15T00:14:08;100449.78;;;17.88;68.53
76404;BME280;65232;48.358;2.122;2022-11-15T00:14:18;100451.31;;;17.89;68.61
76404;BME280;65232;48.358;2.122;2022-11-15T00:14:29;100443.16;;;17.89;68.47
76404;BME280;65232;48.358;2.122;2022-11-15T00:14:39;100450.13;;;17.90;68.41
76404;BME280;65232;48.358;2.122;2022-11-15T00:14:49;100457.94;;;17.88;68.57
76404;BME280;65232;48.358;2.122;2022-11-15T00:14:59;100449.78;;;17.88;68.62
76404;BME280;65232;48.358;2.122;2022-11-15T00:15:10;100450.97;;;17.87;68.41
76404;BME280;65232;48.358;2.122;2022-11-15T00:15:20;100441.63;;;17.88;68.44
76404;BME280;65232;48.358;2.122;2022-11-15T00:15:30;100447.81;;;17.89;68.80
76404;BME280;65232;48.358;2.122;2022-11-15T00:15:41;100452.50;;;17.88;68.40
76404;BME280;65232;48.358;2.122;2022-11-15T00:15:51;100449.78;;;17.88;68.75
76404;BME280;65232;48.358;2.122;2022-11-15T00:16:02;100447.50;;;17.87;68.57
76404;BME280;65232;48.358;2.122;2022-11-15T00:16:13;100448.25;;;17.87;68.79
76404;BME280;65232;48.358;2.122;2022-11-15T00:16:23;100445.97;;;17.86;68.71
76404;BME280;65232;48.358;2.122;2022-11-15T00:16:34;100447.06;;;17.88;68.46
76404;BME280;65232;48.358;2.122;2022-11-15T00:16:44;100450.13;;;17.90;68.43
76404;BME280;65232;48.358;2.122;2022-11-15T00:16:55;100445.78;;;17.93;68.37
76404;BME280;65232;48.358;2.122;2022-11-15T00:17:05;100443.38;;;17.95;68.21
76404;BME280;65232;48.358;2.122;2022-11-15T00:17:15;100445.34;;;17.94;68.25
76404;BME280;65232;48.358;2.122;2022-11-15T00:17:26;100438.38;;;17.93;68.24
76404;BME280;65232;48.358;2.122;2022-11-15T00:17:36;100446.53;;;17.93;68.48
76404;BME280;65232;48.358;2.122;2022-11-15T00:17:49;100444.25;;;17.92;68.46
76404;BME280;65232;48.358;2.122;2022-11-15T00:18:00;100446.19;;;17.91;68.64
76404;BME280;65232;48.358;2.122;2022-11-15T00:18:14;100444.69;;;17.90;68.50
76404;BME280;65232;48.358;2.122;2022-11-15T00:18:25;100448.59;;;17.89;68.71
76404;BME280;65232;48.358;2.122;2022-11-15T00:18:36;100445.09;;;17.89;68.38
76404;BME280;65232;48.358;2.122;2022-11-15T00:18:47;100439.66;;;17.89;68.59
76404;BME280;65232;48.358;2.122;2022-11-15T00:18:57;100448.59;;;17.89;68.39
76404;BME280;65232;48.358;2.122;2022-11-15T00:19:08;100445.09;;;17.89;68.39
76404;BME280;65232;48.358;2.122;2022-11-15T00:19:18;100440.44;;;17.89;68.61
76404;BME280;65232;48.358;2.122;2022-11-15T00:19:28;100442.81;;;17.87;68.54
76404;BME280;65232;48.358;2.122;2022-11-15T00:19:39;100448.25;;;17.87;68.67
76404;BME280;65232;48.358;2.122;2022-11-15T00:19:49;100449.03;;;17.88;68.64
76404;BME280;65232;48.358;2.122;2022-11-15T00:19:59;100445.53;;;17.87;68.50
76404;BME280;65232;48.358;2.122;2022-11-15T00:20:10;100436.19;;;17.88;68.55
76404;BME280;65232;48.358;2.122;2022-11-15T00:20:21;100442.38;;;17.89;68.41
76404;BME280;65232;48.358;2.122;2022-11-15T00:20:34;100440.84;;;17.88;68.52
76404;BME280;65232;48.358;2.122;2022-11-15T00:20:45;100438.13;;;17.88;68.65
76404;BME280;65232;48.358;2.122;2022-11-15T00:20:55;100446.31;;;17.88;68.45
76404;BME280;65232;48.358;2.122;2022-11-15T00:21:09;100442.38;;;17.89;68.68
76404;BME280;65232;48.358;2.122;2022-11-15T00:21:20;100446.63;;;17.90;68.52
76404;BME280;65232;48.358;2.122;2022-11-15T00:21:30;100443.16;;;17.89;68.46
76404;BME280;65232;48.358;2.122;2022-11-15T00:21:40;100440.44;;;17.89;68.57
76404;BME280;65232;48.358;2.122;2022-11-15T00:21:51;100441.63;;;17.88;68.63
76404;BME280;65232;48.358;2.122;2022-11-15T00:22:01;100436.59;;;17.87;68.64
76404;BME280;65232;48.358;2.122;2022-11-15T00:22:11;100440.09;;;17.87;68.55
76404;BME280;65232;48.358;2.122;2022-11-15T00:22:22;100438.13;;;17.88;68.41
76404;BME280;65232;48.358;2.122;2022-11-15T00:22:33;100440.09;;;17.87;68.70
76404;BME280;65232;48.358;2.122;2022-11-15T00:22:43;100442.81;;;17.87;68.64
76404;BME280;65232;48.358;2.122;2022-11-15T00:22:54;100444.78;;;17.87;68.69
76404;BME280;65232;48.358;2.122;2022-11-15T00:23:04;100441.63;;;17.88;68.71
76404;BME280;65232;48.358;2.122;2022-11-15T00:23:15;100440.09;;;17.87;68.71
76404;BME280;65232;48.358;2.122;2022-11-15T00:23:26;100431.16;;;17.87;68.68
76404;BME280;65232;48.358;2.122;2022-11-15T00:23:37;100437.38;;;17.87;68.50
76404;BME280;65232;48.358;2.122;2022-11-15T00:23:47;100440.09;;;17.87;68.49
76404;BME280;65232;48.358;2.122;2022-11-15T00:23:58;100433.47;;;17.88;68.47
76404;BME280;65232;48.358;2.122;2022-11-15T00:24:08;100433.47;;;17.88;68.70
76404;BME280;65232;48.358;2.122;2022-11-15T00:24:19;100439.66;;;17.89;68.48
76404;BME280;65232;48.358;2.122;2022-11-15T00:24:29;100434.22;;;17.89;68.62
76404;BME280;65232;48.358;2.122;2022-11-15T00:24:39;100434.22;;;17.89;68.55
76404;BME280;65232;48.358;2.122;2022-11-15T00:24:50;100436.19;;;17.88;68.39
76404;BME280;65232;48.358;2.122;2022-11-15T00:25:00;100441.63;;;17.88;68.73
76404;BME280;65232;48.358;2.122;2022-11-15T00:25:10;100434.22;;;17.89;68.62
76404;BME280;65232;48.358;2.122;2022-11-15T00:25:21;100440.75;;;17.91;68.52
76404;BME280;65232;48.358;2.122;2022-11-15T00:25:32;100434.44;;;17.94;68.29
76404;BME280;65232;48.358;2.122;2022-11-15T00:25:42;100432.50;;;17.95;68.24
76404;BME280;65232;48.358;2.122;2022-11-15T00:25:59;100434.44;;;17.94;68.42
76404;BME280;65232;48.358;2.122;2022-11-15T00:26:11;100435.22;;;17.95;68.24
76404;BME280;65232;48.358;2.122;2022-11-15T00:26:22;100438.38;;;17.93;68.12
76404;BME280;65232;48.358;2.122;2022-11-15T00:26:33;100432.16;;;17.93;68.26
76404;BME280;65232;48.358;2.122;2022-11-15T00:26:43;100434.88;;;17.93;68.32
76404;BME280;65232;48.358;2.122;2022-11-15T00:26:53;100434.13;;;17.92;68.53
76404;BME280;65232;48.358;2.122;2022-11-15T00:27:03;100435.31;;;17.91;68.42
76404;BME280;65232;48.358;2.122;2022-11-15T00:27:14;100429.88;;;17.91;68.28
76404;BME280;65232;48.358;2.122;2022-11-15T00:27:24;100440.00;;;17.91;68.60
76404;BME280;65232;48.358;2.122;2022-11-15T00:27:34;100434.97;;;17.89;68.60
76404;BME280;65232;48.358;2.122;2022-11-15T00:27:45;100428.34;;;17.90;68.38
76404;BME280;65232;48.358;2.122;2022-11-15T00:27:56;100438.47;;;17.90;68.47
76404;BME280;65232;48.358;2.122;2022-11-15T00:28:07;100427.59;;;17.90;68.49
76404;BME280;65232;48.358;2.122;2022-11-15T00:28:18;100431.50;;;17.89;68.34
76404;BME280;65232;48.358;2.122;2022-11-15T00:28:28;100435.41;;;17.88;68.33
76404;BME280;65232;48.358;2.122;2022-11-15T00:28:39;100428.00;;;17.88;68.44
76404;BME280;65232;48.358;2.122;2022-11-15T00:28:52;100432.69;;;17.88;68.47
76404;BME280;65232;48.358;2.122;2022-11-15T00:29:02;100429.53;;;17.89;68.32
76404;BME280;65232;48.358;2.122;2022-11-15T00:29:13;100433.03;;;17.90;68.41
76404;BME280;65232;48.358;2.122;2022-11-15T00:29:23;100434.22;;;17.89;68.56
76404;BME280;65232;48.358;2.122;2022-11-15T00:29:33;100433.47;;;17.88;68.55
76404;BME280;65232;48.358;2.122;2022-11-15T00:29:44;100434.66;;;17.87;68.34
76404;BME280;65232;48.358;2.122;2022-11-15T00:29:54;100427.69;;;17.86;68.54
76404;BME280;65232;48.358;2.122;2022-11-15T00:30:05;100427.69;;;17.86;68.57
76404;BME280;65232;48.358;2.122;2022-11-15T00:30:15;100426.16;;;17.85;68.47
76404;BME280;65232;48.358;2.122;2022-11-15T00:30:26;100426.91;;;17.86;68.70
76404;BME280;65232;48.358;2.122;2022-11-15T00:30:37;100423.75;;;17.87;68.40
76404;BME280;65232;48.358;2.122;2022-11-15T00:30:47;100426.50;;;17.87;68.62
76404;BME280;65232;48.358;2.122;2022-11-15T00:31:04;100430.72;;;17.88;68.60
76404;BME280;65232;48.358;2.122;2022-11-15T00:31:15;100424.53;;;17.88;68.54
76404;BME280;65232;48.358;2.122;2022-11-15T00:31:26;100429.97;;;17.88;68.33
76404;BME280;65232;48.358;2.122;2022-11-15T00:31:36;100432.25;;;17.89;68.36
76404;BME280;65232;48.358;2.122;2022-11-15T00:31:46;100424.09;;;17.89;68.29
76404;BME280;65232;48.358;2.122;2022-11-15T00:31:56;100422.56;;;17.88;68.51
76404;BME280;65232;48.358;2.122;2022-11-15T00:32:07;100424.09;;;17.89;68.35
76404;BME280;65232;48.358;2.122;2022-11-15T00:32:17;100434.97;;;17.89;68.33
76404;BME280;65232;48.358;2.122;2022-11-15T00:32:31;100416.69;;;17.90;68.40
76404;BME280;65232;48.358;2.122;2022-11-15T00:32:41;100430.31;;;17.90;68.24
76404;BME280;65232;48.358;2.122;2022-11-15T00:32:52;100421.38;;;17.89;68.56
76404;BME280;65232;48.358;2.122;2022-11-15T00:33:04;100422.56;;;17.88;68.55
76404;BME280;65232;48.358;2.122;2022-11-15T00:33:14;100425.28;;;17.88;68.26
76404;BME280;65232;48.358;2.122;2022-11-15T00:33:25;100427.59;;;17.90;68.31
76404;BME280;65232;48.358;2.122;2022-11-15T00:33:35;100431.06;;;17.90;68.43
76404;BME280;65232;48.358;2.122;2022-11-15T00:33:45;100420.19;;;17.90;68.32
76404;BME280;65232;48.358;2.122;2022-11-15T00:33:56;100420.19;;;17.90;68.29
76404;BME280;65232;48.358;2.122;2022-11-15T00:34:06;100423.34;;;17.89;68.36
76404;BME280;65232;48.358;2.122;2022-11-15T00:34:16;100420.63;;;17.89;68.33
76404;BME280;65232;48.358;2.122;2022-11-15T00:34:27;100421.38;;;17.89;68.42
76404;BME280;65232;48.358;2.122;2022-11-15T00:34:37;100422.91;;;17.90;68.29
76404;BME280;65232;48.358;2.122;2022-11-15T00:34:47;100420.19;;;17.90;68.47
76404;BME280;65232;48.358;2.122;2022-11-15T00:34:58;100425.63;;;17.90;68.41
76404;BME280;65232;48.358;2.122;2022-11-15T00:35:08;100420.19;;;17.90;68.62
76404;BME280;65232;48.358;2.122;2022-11-15T00:35:19;100422.13;;;17.90;68.33
76404;BME280;65232;48.358;2.122;2022-11-15T00:35:32;100422.56;;;17.88;68.54
76404;BME280;65232;48.358;2.122;2022-11-15T00:35:43;100424.53;;;17.88;68.49
76404;BME280;65232;48.358;2.122;2022-11-15T00:35:53;100421.81;;;17.88;68.48
76404;BME280;65232;48.358;2.122;2022-11-15T00:36:09;100421.38;;;17.89;68.49
76404;BME280;65232;48.358;2.122;2022-11-15T00:36:20;100421.28;;;17.93;68.26
76404;BME280;65232;48.358;2.122;2022-11-15T00:36:33;100417.78;;;17.92;68.30
76404;BME280;65232;48.358;2.122;2022-11-15T00:36:44;100417.47;;;17.90;68.34
76404;BME280;65232;48.358;2.122;2022-11-15T00:36:54;100413.97;;;17.90;68.43
76404;BME280;65232;48.358;2.122;2022-11-15T00:37:05;100422.13;;;17.90;68.29
76404;BME280;65232;48.358;2.122;2022-11-15T00:37:16;100418.66;;;17.89;68.32
76404;BME280;65232;48.358;2.122;2022-11-15T00:37:26;100423.66;;;17.91;68.31
76404;BME280;65232;48.358;2.122;2022-11-15T00:37:36;100418.13;;;17.94;68.36
76404;BME280;65232;48.358;2.122;2022-11-15T00:37:47;100427.06;;;17.95;68.38
76404;BME280;65232;48.358;2.122;2022-11-15T00:37:58;100420.84;;;17.94;68.36
76404;BME280;65232;48.358;2.122;2022-11-15T00:38:08;100414.63;;;17.94;68.21
76404;BME280;65232;48.358;2.122;2022-11-15T00:38:18;100413.13;;;17.93;68.16
76404;BME280;65232;48.358;2.122;2022-11-15T00:38:36;100420.50;;;17.92;68.33
76404;BME280;65232;48.358;2.122;2022-11-15T00:38:47;100416.25;;;17.91;68.41
76404;BME280;65232;48.358;2.122;2022-11-15T00:38:58;100412.03;;;17.90;68.50
76404;BME280;65232;48.358;2.122;2022-11-15T00:39:08;100416.69;;;17.90;68.54
76404;BME280;65232;48.358;2.122;2022-11-15T00:39:18;100412.44;;;17.89;68.28
76404;BME280;65232;48.358;2.122;2022-11-15T00:39:29;100411.25;;;17.90;68.35
76404;BME280;65232;48.358;2.122;2022-11-15T00:39:39;100416.69;;;17.90;68.46
76404;BME280;65232;48.358;2.122;2022-11-15T00:39:49;100421.38;;;17.89;68.40
76404;BME280;65232;48.358;2.122;2022-11-15T00:39:59;100417.47;;;17.90;68.29
76404;BME280;65232;48.358;2.122;2022-11-15T00:40:10;100411.25;;;17.90;68.54
76404;BME280;65232;48.358;2.122;2022-11-15T00:40:22;100412.78;;;17.91;68.23
76404;BME280;65232;48.358;2.122;2022-11-15T00:40:33;100411.91;;;17.94;68.31
76404;BME280;65232;48.358;2.122;2022-11-15T00:40:43;100411.91;;;17.94;68.29
76404;BME280;65232;48.358;2.122;2022-11-15T00:40:53;100411.50;;;17.95;68.12
76404;BME280;65232;48.358;2.122;2022-11-15T00:41:05;100422.81;;;17.94;68.07
76404;BME280;65232;48.358;2.122;2022-11-15T00:41:15;100418.56;;;17.93;68.36
76404;BME280;65232;48.358;2.122;2022-11-15T00:41:26;100416.25;;;17.91;68.41
76404;BME280;65232;48.358;2.122;2022-11-15T00:41:36;100412.03;;;17.90;68.43
76404;BME280;65232;48.358;2.122;2022-11-15T00:41:47;100414.75;;;17.90;68.45
76404;BME280;65232;48.358;2.122;2022-11-15T00:41:57;100417.47;;;17.90;68.28
76404;BME280;65232;48.358;2.122;2022-11-15T00:42:07;100412.03;;;17.90;68.40
76404;BME280;65232;48.358;2.122;2022-11-15T00:42:18;100410.50;;;17.89;68.43
76404;BME280;65232;48.358;2.122;2022-11-15T00:42:28;100409.72;;;17.89;68.43
76404;BME280;65232;48.358;2.122;2022-11-15T00:42:38;100418.66;;;17.89;68.25
76404;BME280;65232;48.358;2.122;2022-11-15T00:42:49;100413.53;;;17.91;68.34
76404;BME280;65232;48.358;2.122;2022-11-15T00:42:59;100408.88;;;17.92;68.33
76404;BME280;65232;48.358;2.122;2022-11-15T00:43:09;100412.69;;;17.94;68.33
76404;BME280;65232;48.358;2.122;2022-11-15T00:43:20;100409.97;;;17.94;68.33
76404;BME280;65232;48.358;2.122;2022-11-15T00:43:30;100418.88;;;17.95;68.31
76404;BME280;65232;48.358;2.122;2022-11-15T00:43:41;100408.44;;;17.93;68.52
76404;BME280;65232;48.358;2.122;2022-11-15T00:43:53;100408.88;;;17.92;68.16
76404;BME280;65232;48.358;2.122;2022-11-15T00:44:03;100410.81;;;17.91;68.27
76404;BME280;65232;48.358;2.122;2022-11-15T00:44:14;100412.03;;;17.90;68.32
76404;BME280;65232;48.358;2.122;2022-11-15T00:44:24;100406.56;;;17.90;68.25
76404;BME280;65232;48.358;2.122;2022-11-15T00:44:34;100411.25;;;17.90;68.26
76404;BME280;65232;48.358;2.122;2022-11-15T00:44:45;100407.78;;;17.89;68.45
76404;BME280;65232;48.358;2.122;2022-11-15T00:44:55;100413.22;;;17.89;68.41
76404;BME280;65232;48.358;2.122;2022-11-15T00:45:06;100411.25;;;17.90;68.34
76404;BME280;65232;48.358;2.122;2022-11-15T00:45:16;100407.00;;;17.89;68.47
76404;BME280;65232;48.358;2.122;2022-11-15T00:45:27;100410.91;;;17.88;68.52
76404;BME280;65232;48.358;2.122;2022-11-15T00:45:37;100414.41;;;17.88;68.44
76404;BME280;65232;48.358;2.122;2022-11-15T00:45:47;100406.25;;;17.88;68.54
76404;BME280;65232;48.358;2.122;2022-11-15T00:45:58;100410.16;;;17.87;68.38
76404;BME280;65232;48.358;2.122;2022-11-15T00:46:09;100407.44;;;17.87;68.58
76404;BME280;65232;48.358;2.122;2022-11-15T00:46:19;100407.44;;;17.87;68.33
76404;BME280;65232;48.358;2.122;2022-11-15T00:46:29;100406.66;;;17.87;68.61
76404;BME280;65232;48.358;2.122;2022-11-15T00:46:40;100407.09;;;17.85;68.44
76404;BME280;65232;48.358;2.122;2022-11-15T00:46:50;100407.09;;;17.85;68.65
76404;BME280;65232;48.358;2.122;2022-11-15T00:47:00;100405.16;;;17.86;68.41
76404;BME280;65232;48.358;2.122;2022-11-15T00:47:11;100409.06;;;17.85;68.53
76404;BME280;65232;48.358;2.122;2022-11-15T00:47:21;100410.59;;;17.86;68.48
76404;BME280;65232;48.358;2.122;2022-11-15T00:47:31;100412.53;;;17.85;68.46
76404;BME280;65232;48.358;2.122;2022-11-15T00:47:45;100407.09;;;17.85;68.67
76404;BME280;65232;48.358;2.122;2022-11-15T00:47:56;100411.78;;;17.85;68.47
76404;BME280;65232;48.358;2.122;2022-11-15T00:48:07;100400.91;;;17.85;68.54
76404;BME280;65232;48.358;2.122;2022-11-15T00:48:17;100408.28;;;17.84;68.47
76404;BME280;65232;48.358;2.122;2022-11-15T00:48:28;100412.97;;;17.84;68.53
76404;BME280;65232;48.358;2.122;2022-11-15T00:48:38;100402.84;;;17.84;68.38
76404;BME280;65232;48.358;2.122;2022-11-15T00:48:49;100405.56;;;17.84;68.54
76404;BME280;65232;48.358;2.122;2022-11-15T00:48:59;100411.03;;;17.84;68.50
76404;BME280;65232;48.358;2.122;2022-11-15T00:49:09;100411.03;;;17.84;68.68
76404;BME280;65232;48.358;2.122;2022-11-15T00:49:20;100411.03;;;17.84;68.56
76404;BME280;65232;48.358;2.122;2022-11-15T00:49:30;100409.50;;;17.83;68.54
76404;BME280;65232;48.358;2.122;2022-11-15T00:49:40;100408.72;;;17.83;68.73
76404;BME280;65232;48.358;2.122;2022-11-15T00:49:51;100409.50;;;17.83;68.68
76404;BME280;65232;48.358;2.122;2022-11-15T00:50:02;100406.78;;;17.83;68.71
76404;BME280;65232;48.358;2.122;2022-11-15T00:50:13;100406.00;;;17.83;68.70
76404;BME280;65232;48.358;2.122;2022-11-15T00:50:23;100407.19;;;17.82;68.72
76404;BME280;65232;48.358;2.122;2022-11-15T00:50:33;100413.31;;;17.86;68.63
76404;BME280;65232;48.358;2.122;2022-11-15T00:50:44;100405.16;;;17.86;68.60
76404;BME280;65232;48.358;2.122;2022-11-15T00:50:54;100402.84;;;17.84;68.42
76404;BME280;65232;48.358;2.122;2022-11-15T00:51:04;100402.09;;;17.84;68.51
76404;BME280;65232;48.358;2.122;2022-11-15T00:51:15;100402.09;;;17.84;68.77
76404;BME280;65232;48.358;2.122;2022-11-15T00:51:25;100403.28;;;17.83;68.53
76404;BME280;65232;48.358;2.122;2022-11-15T00:51:35;100403.28;;;17.83;68.59
76404;BME280;65232;48.358;2.122;2022-11-15T00:51:46;100403.28;;;17.83;68.68
76404;BME280;65232;48.358;2.122;2022-11-15T00:51:56;100403.72;;;17.81;68.73
76404;BME280;65232;48.358;2.122;2022-11-15T00:52:06;100406.00;;;17.83;68.77
76404;BME280;65232;48.358;2.122;2022-11-15T00:52:17;100397.41;;;17.84;68.53
76404;BME280;65232;48.358;2.122;2022-11-15T00:52:27;100410.59;;;17.86;68.43
76404;BME280;65232;48.358;2.122;2022-11-15T00:52:38;100404.72;;;17.87;68.48
76404;BME280;65232;48.358;2.122;2022-11-15T00:52:48;100396.56;;;17.87;68.62
76404;BME280;65232;48.358;2.122;2022-11-15T00:52:58;100397.75;;;17.86;68.44
76404;BME280;65232;48.358;2.122;2022-11-15T00:53:08;100397.75;;;17.86;68.52
76404;BME280;65232;48.358;2.122;2022-11-15T00:53:19;100399.72;;;17.86;68.51
76404;BME280;65232;48.358;2.122;2022-11-15T00:53:29;100398.19;;;17.85;68.54
76404;BME280;65232;48.358;2.122;2022-11-15T00:53:39;100402.84;;;17.84;68.51
76404;BME280;65232;48.358;2.122;2022-11-15T00:53:50;100398.19;;;17.85;68.44
76404;BME280;65232;48.358;2.122;2022-11-15T00:54:00;100398.94;;;17.85;68.52
76404;BME280;65232;48.358;2.122;2022-11-15T00:54:10;100396.22;;;17.85;68.64
76404;BME280;65232;48.358;2.122;2022-11-15T00:54:21;100394.25;;;17.86;68.44
76404;BME280;65232;48.358;2.122;2022-11-15T00:54:31;100400.47;;;17.86;68.48
76404;BME280;65232;48.358;2.122;2022-11-15T00:54:41;100399.72;;;17.86;68.42
76404;BME280;65232;48.358;2.122;2022-11-15T00:54:52;100392.75;;;17.85;68.38
76404;BME280;65232;48.358;2.122;2022-11-15T00:55:02;100404.38;;;17.85;68.42
76404;BME280;65232;48.358;2.122;2022-11-15T00:55:17;100396.22;;;17.85;68.38
76404;BME280;65232;48.358;2.122;2022-11-15T00:55:28;100391.53;;;17.86;68.51
76404;BME280;65232;48.358;2.122;2022-11-15T00:55:38;100398.94;;;17.85;68.59
76404;BME280;65232;48.358;2.122;2022-11-15T00:55:49;100393.50;;;17.85;68.52
76404;BME280;65232;48.358;2.122;2022-11-15T00:55:59;100383.03;;;17.84;68.43
76404;BME280;65232;48.358;2.122;2022-11-15T00:56:09;100395.47;;;17.85;68.53
76404;BME280;65232;48.358;2.122;2022-11-15T00:56:19;100387.72;;;17.83;68.59